sensor_id;sensor_type;location;lat;lon;timestamp;P1;durP1;ratioP1;P2;durP2;ratioP2
7525;SDS011;3804;50.860;6.208;2022-10-10T00:02:20;8.43;;;5.87;;
7525;SDS011;3804;50.860;6.208;2022-10-10T00:04:47;8.73;;;6.10;;
7525;SDS011;3804;50.860;6.208;2022-10-10T00:07:13;8.00;;;5.60;;
7525;SDS011;3804;50.860;6.208;2022-10-10T00:09:40;7.93;;;5.93;;
7525;SDS011;3804;50.860;6.208;2022-10-10T00:12:06;6.93;;;5.60;;
7525;SDS011;3804;50.860;6.208;2022-10-10T00:14:33;7.37;;;5.80;;
7525;SDS011;3804;50.860;6.208;2022-10-10T00:16:59;7.30;;;5.60;;
7525;SDS011;3804;50.860;6.208;2022-10-10T00:19:26;8.87;;;6.47;;
7525;SDS011;3804;50.860;6.208;2022-10-10T00:21:53;10.03;;;5.90;;
7525;SDS011;3804;50.860;6.208;2022-10-10T00:24:20;9.20;;;6.23;;
7525;SDS011;3804;50.860;6.208;2022-10-10T00:26:46;9.03;;;6.37;;
7525;SDS011;3804;50.860;6.208;2022-10-10T00:29:13;9.17;;;6.70;;
7525;SDS011;3804;50.860;6.208;2022-10-10T00:31:39;9.97;;;5.70;;
7525;SDS011;3804;50.860;6.208;2022-10-10T00:34:06;9.90;;;6.10;;
7525;SDS011;3804;50.860;6.208;2022-10-10T00:36:33;8.57;;;5.57;;
7525;SDS011;3804;50.860;6.208;2022-10-10T00:38:59;8.93;;;6.40;;
7525;SDS011;3804;50.860;6.208;2022-10-10T00:41:27;9.67;;;6.23;;
7525;SDS011;3804;50.860;6.208;2022-10-10T00:44:08;8.17;;;6.20;;
7525;SDS011;3804;50.860;6.208;2022-10-10T00:46:35;9.33;;;5.83;;
7525;SDS011;3804;50.860;6.208;2022-10-10T00:49:02;12.13;;;6.63;;
7525;SDS011;3804;50.860;6.208;2022-10-10T00:51:30;9.33;;;5.60;;
7525;SDS011;3804;50.860;6.208;2022-10-10T00:53:57;6.97;;;5.73;;
7525;SDS011;3804;50.860;6.208;2022-10-10T00:56:26;10.40;;;7.27;;
7525;SDS011;3804;50.860;6.208;2022-10-10T00:58:55;8.40;;;6.27;;
7525;SDS011;3804;50.860;6.208;2022-10-10T01:01:23;8.10;;;6.70;;
7525;SDS011;3804;50.860;6.208;2022-10-10T01:03:49;9.23;;;6.40;;
7525;SDS011;3804;50.860;6.208;2022-10-10T01:06:16;8.90;;;6.23;;
7525;SDS011;3804;50.860;6.208;2022-10-10T01:08:43;10.97;;;6.27;;
7525;SDS011;3804;50.860;6.208;2022-10-10T01:14:07;8.47;;;6.13;;
7525;SDS011;3804;50.860;6.208;2022-10-10T01:21:36;8.40;;;6.20;;
7525;SDS011;3804;50.860;6.208;2022-10-10T01:29:44;8.27;;;5.37;;
7525;SDS011;3804;50.860;6.208;2022-10-10T01:32:19;8.33;;;5.80;;
7525;SDS011;3804;50.860;6.208;2022-10-10T01:38:07;7.20;;;5.07;;
7525;SDS011;3804;50.860;6.208;2022-10-10T01:43:11;7.30;;;5.13;;
7525;SDS011;3804;50.860;6.208;2022-10-10T01:45:42;9.97;;;4.67;;
7525;SDS011;3804;50.860;6.208;2022-10-10T01:48:09;8.57;;;4.90;;
7525;SDS011;3804;50.860;6.208;2022-10-10T01:50:41;8.00;;;5.17;;
7525;SDS011;3804;50.860;6.208;2022-10-10T01:53:22;5.80;;;4.47;;
7525;SDS011;3804;50.860;6.208;2022-10-10T01:55:52;8.57;;;5.30;;
7525;SDS011;3804;50.860;6.208;2022-10-10T02:01:02;7.30;;;4.73;;
7525;SDS011;3804;50.860;6.208;2022-10-10T02:03:34;9.23;;;5.30;;
7525;SDS011;3804;50.860;6.208;2022-10-10T02:06:08;5.77;;;5.00;;
7525;SDS011;3804;50.860;6.208;2022-10-10T02:08:43;8.83;;;5.10;;
7525;SDS011;3804;50.860;6.208;2022-10-10T02:11:11;7.30;;;4.97;;
7525;SDS011;3804;50.860;6.208;2022-10-10T02:13:40;6.33;;;5.23;;
7525;SDS011;3804;50.860;6.208;2022-10-10T02:16:12;8.73;;;5.27;;
7525;SDS011;3804;50.860;6.208;2022-10-10T02:18:39;6.63;;;4.67;;
7525;SDS011;3804;50.860;6.208;2022-10-10T02:21:10;6.27;;;4.63;;
7525;SDS011;3804;50.860;6.208;2022-10-10T02:23:39;6.93;;;5.20;;
7525;SDS011;3804;50.860;6.208;2022-10-10T02:26:07;7.50;;;5.00;;
7525;SDS011;3804;50.860;6.208;2022-10-10T02:28:37;7.40;;;5.47;;
7525;SDS011;3804;50.860;6.208;2022-10-10T02:31:10;7.30;;;5.17;;
7525;SDS011;3804;50.860;6.208;2022-10-10T02:33:41;9.60;;;5.20;;
7525;SDS011;3804;50.860;6.208;2022-10-10T02:36:10;6.57;;;5.00;;
7525;SDS011;3804;50.860;6.208;2022-10-10T02:38:37;7.17;;;5.10;;
7525;SDS011;3804;50.860;6.208;2022-10-10T02:41:04;7.43;;;5.00;;
7525;SDS011;3804;50.860;6.208;2022-10-10T02:43:31;9.80;;;5.00;;
7525;SDS011;3804;50.860;6.208;2022-10-10T02:46:02;8.23;;;4.70;;
7525;SDS011;3804;50.860;6.208;2022-10-10T02:48:30;9.40;;;4.53;;
7525;SDS011;3804;50.860;6.208;2022-10-10T02:50:57;7.40;;;5.17;;
7525;SDS011;3804;50.860;6.208;2022-10-10T02:53:24;7.27;;;4.93;;
7525;SDS011;3804;50.860;6.208;2022-10-10T02:55:51;7.43;;;5.30;;
7525;SDS011;3804;50.860;6.208;2022-10-10T02:58:18;6.47;;;5.03;;
7525;SDS011;3804;50.860;6.208;2022-10-10T03:00:44;7.10;;;4.93;;
7525;SDS011;3804;50.860;6.208;2022-10-10T03:03:11;7.50;;;4.67;;
7525;SDS011;3804;50.860;6.208;2022-10-10T03:05:38;9.03;;;5.00;;
7525;SDS011;3804;50.860;6.208;2022-10-10T03:08:04;7.63;;;5.10;;
7525;SDS011;3804;50.860;6.208;2022-10-10T03:10:37;6.00;;;4.90;;
7525;SDS011;3804;50.860;6.208;2022-10-10T03:13:03;8.07;;;5.23;;
7525;SDS011;3804;50.860;6.208;2022-10-10T03:15:30;5.83;;;4.70;;
7525;SDS011;3804;50.860;6.208;2022-10-10T03:17:56;8.30;;;5.50;;
7525;SDS011;3804;50.860;6.208;2022-10-10T03:20:23;7.57;;;5.60;;
7525;SDS011;3804;50.860;6.208;2022-10-10T03:22:50;7.73;;;5.20;;
7525;SDS011;3804;50.860;6.208;2022-10-10T03:25:17;7.33;;;5.23;;
7525;SDS011;3804;50.860;6.208;2022-10-10T03:27:44;7.23;;;5.30;;
7525;SDS011;3804;50.860;6.208;2022-10-10T03:30:10;9.17;;;5.67;;
7525;SDS011;3804;50.860;6.208;2022-10-10T03:32:37;8.93;;;5.30;;
7525;SDS011;3804;50.860;6.208;2022-10-10T03:35:04;6.67;;;4.93;;
7525;SDS011;3804;50.860;6.208;2022-10-10T03:37:30;6.73;;;4.77;;
7525;SDS011;3804;50.860;6.208;2022-10-10T03:39:57;8.00;;;5.00;;
7525;SDS011;3804;50.860;6.208;2022-10-10T03:42:24;6.27;;;5.13;;
7525;SDS011;3804;50.860;6.208;2022-10-10T03:44:50;9.87;;;5.73;;
7525;SDS011;3804;50.860;6.208;2022-10-10T03:47:17;7.73;;;5.27;;
7525;SDS011;3804;50.860;6.208;2022-10-10T03:49:43;7.07;;;5.40;;
7525;SDS011;3804;50.860;6.208;2022-10-10T03:52:10;7.77;;;5.17;;
7525;SDS011;3804;50.860;6.208;2022-10-10T03:54:37;8.80;;;5.57;;
7525;SDS011;3804;50.860;6.208;2022-10-10T03:57:03;6.07;;;5.40;;
7525;SDS011;3804;50.860;6.208;2022-10-10T03:59:30;9.80;;;5.20;;
7525;SDS011;3804;50.860;6.208;2022-10-10T04:01:56;7.90;;;5.73;;
7525;SDS011;3804;50.860;6.208;2022-10-10T04:04:23;8.77;;;5.57;;
7525;SDS011;3804;50.860;6.208;2022-10-10T04:06:50;13.60;;;5.43;;
7525;SDS011;3804;50.860;6.208;2022-10-10T04:09:17;6.23;;;4.60;;
7525;SDS011;3804;50.860;6.208;2022-10-10T04:11:43;9.97;;;5.43;;
7525;SDS011;3804;50.860;6.208;2022-10-10T04:14:10;8.13;;;5.53;;
7525;SDS011;3804;50.860;6.208;2022-10-10T04:16:37;9.07;;;5.77;;
7525;SDS011;3804;50.860;6.208;2022-10-10T04:19:03;7.90;;;5.63;;
7525;SDS011;3804;50.860;6.208;2022-10-10T04:21:30;10.37;;;6.03;;
7525;SDS011;3804;50.860;6.208;2022-10-10T04:23:57;11.70;;;6.00;;
7525;SDS011;3804;50.860;6.208;2022-10-10T04:26:23;13.47;;;5.83;;
7525;SDS011;3804;50.860;6.208;2022-10-10T04:28:50;9.13;;;5.90;;
7525;SDS011;3804;50.860;6.208;2022-10-10T04:31:16;15.80;;;6.27;;
7525;SDS011;3804;50.860;6.208;2022-10-10T04:33:43;15.53;;;6.40;;
7525;SDS011;3804;50.860;6.208;2022-10-10T04:36:09;11.27;;;6.33;;
7525;SDS011;3804;50.860;6.208;2022-10-10T04:38:36;15.13;;;6.77;;
7525;SDS011;3804;50.860;6.208;2022-10-10T04:41:03;12.03;;;6.60;;
7525;SDS011;3804;50.860;6.208;2022-10-10T04:43:30;12.23;;;5.57;;
7525;SDS011;3804;50.860;6.208;2022-10-10T04:45:56;15.40;;;6.20;;
7525;SDS011;3804;50.860;6.208;2022-10-10T04:48:26;11.60;;;6.20;;
7525;SDS011;3804;50.860;6.208;2022-10-10T04:50:54;9.00;;;5.73;;
7525;SDS011;3804;50.860;6.208;2022-10-10T04:53:21;12.90;;;6.03;;
7525;SDS011;3804;50.860;6.208;2022-10-10T04:55:47;11.33;;;6.10;;
7525;SDS011;3804;50.860;6.208;2022-10-10T04:58:14;9.47;;;6.20;;
7525;SDS011;3804;50.860;6.208;2022-10-10T05:00:41;11.50;;;6.80;;
7525;SDS011;3804;50.860;6.208;2022-10-10T05:03:08;9.30;;;6.20;;
7525;SDS011;3804;50.860;6.208;2022-10-10T05:05:38;11.43;;;6.43;;
7525;SDS011;3804;50.860;6.208;2022-10-10T05:08:05;10.47;;;6.23;;
7525;SDS011;3804;50.860;6.208;2022-10-10T05:10:35;11.50;;;6.60;;
7525;SDS011;3804;50.860;6.208;2022-10-10T05:13:03;15.50;;;6.97;;
7525;SDS011;3804;50.860;6.208;2022-10-10T05:15:29;9.30;;;5.80;;
7525;SDS011;3804;50.860;6.208;2022-10-10T05:17:58;10.73;;;6.03;;
7525;SDS011;3804;50.860;6.208;2022-10-10T05:20:25;11.23;;;5.80;;
7525;SDS011;3804;50.860;6.208;2022-10-10T05:22:52;10.47;;;6.10;;
7525;SDS011;3804;50.860;6.208;2022-10-10T05:25:19;14.20;;;6.63;;
7525;SDS011;3804;50.860;6.208;2022-10-10T05:27:45;13.10;;;6.43;;
7525;SDS011;3804;50.860;6.208;2022-10-10T05:30:12;14.30;;;5.77;;
7525;SDS011;3804;50.860;6.208;2022-10-10T05:32:39;16.80;;;6.83;;
7525;SDS011;3804;50.860;6.208;2022-10-10T05:35:05;17.47;;;6.43;;
7525;SDS011;3804;50.860;6.208;2022-10-10T05:37:32;18.43;;;7.80;;
7525;SDS011;3804;50.860;6.208;2022-10-10T05:39:59;12.77;;;7.03;;
7525;SDS011;3804;50.860;6.208;2022-10-10T05:42:26;10.60;;;6.40;;
7525;SDS011;3804;50.860;6.208;2022-10-10T05:44:53;13.97;;;7.40;;
7525;SDS011;3804;50.860;6.208;2022-10-10T05:47:19;27.07;;;8.30;;
7525;SDS011;3804;50.860;6.208;2022-10-10T05:49:52;20.83;;;7.87;;
7525;SDS011;3804;50.860;6.208;2022-10-10T05:52:19;22.13;;;9.00;;
7525;SDS011;3804;50.860;6.208;2022-10-10T05:54:46;19.50;;;6.70;;
7525;SDS011;3804;50.860;6.208;2022-10-10T05:57:12;15.63;;;7.00;;
7525;SDS011;3804;50.860;6.208;2022-10-10T05:59:41;22.90;;;6.80;;
7525;SDS011;3804;50.860;6.208;2022-10-10T06:02:10;13.83;;;6.90;;
7525;SDS011;3804;50.860;6.208;2022-10-10T06:04:37;17.23;;;7.50;;
7525;SDS011;3804;50.860;6.208;2022-10-10T06:07:03;11.67;;;6.07;;
7525;SDS011;3804;50.860;6.208;2022-10-10T06:09:30;10.93;;;6.77;;
7525;SDS011;3804;50.860;6.208;2022-10-10T06:11:56;11.93;;;7.00;;
7525;SDS011;3804;50.860;6.208;2022-10-10T06:14:23;14.93;;;7.30;;
7525;SDS011;3804;50.860;6.208;2022-10-10T06:16:50;14.07;;;7.40;;
7525;SDS011;3804;50.860;6.208;2022-10-10T06:19:16;10.10;;;7.10;;
7525;SDS011;3804;50.860;6.208;2022-10-10T06:21:43;11.77;;;6.37;;
7525;SDS011;3804;50.860;6.208;2022-10-10T06:24:10;13.37;;;6.40;;
7525;SDS011;3804;50.860;6.208;2022-10-10T06:26:36;11.97;;;7.10;;
7525;SDS011;3804;50.860;6.208;2022-10-10T06:29:03;10.67;;;6.20;;
7525;SDS011;3804;50.860;6.208;2022-10-10T06:31:30;12.47;;;5.97;;
7525;SDS011;3804;50.860;6.208;2022-10-10T06:33:57;9.47;;;6.63;;
7525;SDS011;3804;50.860;6.208;2022-10-10T06:36:24;11.00;;;6.57;;
7525;SDS011;3804;50.860;6.208;2022-10-10T06:38:50;7.33;;;5.43;;
7525;SDS011;3804;50.860;6.208;2022-10-10T06:41:17;9.70;;;6.13;;
7525;SDS011;3804;50.860;6.208;2022-10-10T06:43:44;12.87;;;5.77;;
7525;SDS011;3804;50.860;6.208;2022-10-10T06:46:10;13.47;;;5.93;;
7525;SDS011;3804;50.860;6.208;2022-10-10T06:48:37;11.53;;;6.50;;
7525;SDS011;3804;50.860;6.208;2022-10-10T06:51:05;13.80;;;6.60;;
7525;SDS011;3804;50.860;6.208;2022-10-10T06:53:33;12.20;;;6.77;;
7525;SDS011;3804;50.860;6.208;2022-10-10T06:56:00;19.97;;;6.67;;
7525;SDS011;3804;50.860;6.208;2022-10-10T06:58:27;16.73;;;6.30;;
7525;SDS011;3804;50.860;6.208;2022-10-10T07:00:55;10.13;;;5.50;;
7525;SDS011;3804;50.860;6.208;2022-10-10T07:03:24;12.53;;;5.80;;
7525;SDS011;3804;50.860;6.208;2022-10-10T07:05:55;11.13;;;5.60;;
7525;SDS011;3804;50.860;6.208;2022-10-10T07:08:25;11.30;;;5.63;;
7525;SDS011;3804;50.860;6.208;2022-10-10T07:10:52;10.40;;;5.17;;
7525;SDS011;3804;50.860;6.208;2022-10-10T07:13:19;9.20;;;5.37;;
7525;SDS011;3804;50.860;6.208;2022-10-10T07:15:46;7.50;;;4.87;;
7525;SDS011;3804;50.860;6.208;2022-10-10T07:18:14;10.60;;;5.03;;
7525;SDS011;3804;50.860;6.208;2022-10-10T07:20:43;11.80;;;5.40;;
7525;SDS011;3804;50.860;6.208;2022-10-10T07:23:11;7.60;;;4.80;;
7525;SDS011;3804;50.860;6.208;2022-10-10T07:25:39;8.10;;;5.03;;
7525;SDS011;3804;50.860;6.208;2022-10-10T07:28:07;7.07;;;4.37;;
7525;SDS011;3804;50.860;6.208;2022-10-10T07:30:38;7.00;;;4.37;;
7525;SDS011;3804;50.860;6.208;2022-10-10T07:33:06;8.87;;;3.90;;
7525;SDS011;3804;50.860;6.208;2022-10-10T07:35:34;6.57;;;4.07;;
7525;SDS011;3804;50.860;6.208;2022-10-10T07:38:02;10.43;;;3.80;;
7525;SDS011;3804;50.860;6.208;2022-10-10T07:40:29;6.33;;;3.60;;
7525;SDS011;3804;50.860;6.208;2022-10-10T07:42:56;6.97;;;3.90;;
7525;SDS011;3804;50.860;6.208;2022-10-10T07:45:24;7.13;;;3.67;;
7525;SDS011;3804;50.860;6.208;2022-10-10T07:47:51;7.77;;;4.07;;
7525;SDS011;3804;50.860;6.208;2022-10-10T07:50:19;6.63;;;3.47;;
7525;SDS011;3804;50.860;6.208;2022-10-10T07:52:46;7.63;;;3.30;;
7525;SDS011;3804;50.860;6.208;2022-10-10T07:55:13;6.90;;;3.50;;
7525;SDS011;3804;50.860;6.208;2022-10-10T07:57:41;6.60;;;4.00;;
7525;SDS011;3804;50.860;6.208;2022-10-10T08:00:10;8.23;;;4.67;;
7525;SDS011;3804;50.860;6.208;2022-10-10T08:02:39;6.10;;;3.83;;
7525;SDS011;3804;50.860;6.208;2022-10-10T08:05:07;11.80;;;4.40;;
7525;SDS011;3804;50.860;6.208;2022-10-10T08:07:34;8.47;;;3.70;;
7525;SDS011;3804;50.860;6.208;2022-10-10T08:10:02;8.83;;;3.77;;
7525;SDS011;3804;50.860;6.208;2022-10-10T08:12:29;4.60;;;2.70;;
7525;SDS011;3804;50.860;6.208;2022-10-10T08:14:55;7.60;;;4.80;;
7525;SDS011;3804;50.860;6.208;2022-10-10T08:17:24;13.90;;;8.00;;
7525;SDS011;3804;50.860;6.208;2022-10-10T08:19:51;14.80;;;10.53;;
7525;SDS011;3804;50.860;6.208;2022-10-10T08:22:18;8.77;;;5.33;;
7525;SDS011;3804;50.860;6.208;2022-10-10T08:24:45;3.83;;;3.33;;
7525;SDS011;3804;50.860;6.208;2022-10-10T08:27:11;8.27;;;3.47;;
7525;SDS011;3804;50.860;6.208;2022-10-10T08:29:40;8.73;;;3.13;;
7525;SDS011;3804;50.860;6.208;2022-10-10T08:32:06;5.67;;;2.87;;
7525;SDS011;3804;50.860;6.208;2022-10-10T08:34:36;5.33;;;2.70;;
7525;SDS011;3804;50.860;6.208;2022-10-10T08:37:02;4.70;;;2.70;;
7525;SDS011;3804;50.860;6.208;2022-10-10T08:39:29;6.47;;;2.40;;
7525;SDS011;3804;50.860;6.208;2022-10-10T08:41:57;6.43;;;2.60;;
7525;SDS011;3804;50.860;6.208;2022-10-10T08:44:38;9.23;;;2.83;;
7525;SDS011;3804;50.860;6.208;2022-10-10T08:49:36;6.90;;;2.70;;
7525;SDS011;3804;50.860;6.208;2022-10-10T08:52:15;5.83;;;2.40;;
7525;SDS011;3804;50.860;6.208;2022-10-10T08:54:43;8.73;;;2.60;;
7525;SDS011;3804;50.860;6.208;2022-10-10T08:57:16;10.63;;;2.60;;
7525;SDS011;3804;50.860;6.208;2022-10-10T08:59:45;7.63;;;2.53;;
7525;SDS011;3804;50.860;6.208;2022-10-10T09:04:44;4.40;;;2.30;;
7525;SDS011;3804;50.860;6.208;2022-10-10T09:07:14;7.53;;;2.53;;
7525;SDS011;3804;50.860;6.208;2022-10-10T09:10:00;5.80;;;2.13;;
7525;SDS011;3804;50.860;6.208;2022-10-10T09:12:45;9.33;;;2.40;;
7525;SDS011;3804;50.860;6.208;2022-10-10T09:15:17;7.90;;;2.10;;
7525;SDS011;3804;50.860;6.208;2022-10-10T09:17:51;6.43;;;1.83;;
7525;SDS011;3804;50.860;6.208;2022-10-10T09:23:18;8.50;;;1.70;;
7525;SDS011;3804;50.860;6.208;2022-10-10T09:25:50;6.77;;;1.90;;
7525;SDS011;3804;50.860;6.208;2022-10-10T09:28:32;6.90;;;1.87;;
7525;SDS011;3804;50.860;6.208;2022-10-10T09:31:01;6.73;;;2.10;;
7525;SDS011;3804;50.860;6.208;2022-10-10T09:33:38;7.87;;;2.20;;
7525;SDS011;3804;50.860;6.208;2022-10-10T09:36:08;6.23;;;2.20;;
7525;SDS011;3804;50.860;6.208;2022-10-10T09:38:36;6.00;;;1.87;;
7525;SDS011;3804;50.860;6.208;2022-10-10T09:41:10;5.93;;;2.10;;
7525;SDS011;3804;50.860;6.208;2022-10-10T09:43:38;8.70;;;2.43;;
7525;SDS011;3804;50.860;6.208;2022-10-10T09:46:06;10.23;;;2.33;;
7525;SDS011;3804;50.860;6.208;2022-10-10T09:48:34;6.60;;;2.40;;
7525;SDS011;3804;50.860;6.208;2022-10-10T09:51:02;5.50;;;2.37;;
7525;SDS011;3804;50.860;6.208;2022-10-10T09:53:29;7.47;;;2.20;;
7525;SDS011;3804;50.860;6.208;2022-10-10T09:55:56;8.07;;;2.97;;
7525;SDS011;3804;50.860;6.208;2022-10-10T09:58:25;6.13;;;1.93;;
7525;SDS011;3804;50.860;6.208;2022-10-10T10:00:53;7.47;;;1.80;;
7525;SDS011;3804;50.860;6.208;2022-10-10T10:03:21;6.57;;;2.33;;
7525;SDS011;3804;50.860;6.208;2022-10-10T10:06:00;5.20;;;1.90;;
7525;SDS011;3804;50.860;6.208;2022-10-10T10:08:28;3.13;;;1.80;;
7525;SDS011;3804;50.860;6.208;2022-10-10T10:10:55;8.40;;;2.33;;
7525;SDS011;3804;50.860;6.208;2022-10-10T10:13:30;5.33;;;1.73;;
7525;SDS011;3804;50.860;6.208;2022-10-10T10:16:13;6.60;;;1.80;;
7525;SDS011;3804;50.860;6.208;2022-10-10T10:18:41;5.67;;;2.20;;
7525;SDS011;3804;50.860;6.208;2022-10-10T10:26:21;7.77;;;2.07;;
7525;SDS011;3804;50.860;6.208;2022-10-10T10:28:48;9.00;;;2.43;;
7525;SDS011;3804;50.860;6.208;2022-10-10T10:39:22;8.10;;;2.30;;
7525;SDS011;3804;50.860;6.208;2022-10-10T10:50:09;4.83;;;1.93;;
7525;SDS011;3804;50.860;6.208;2022-10-10T10:52:52;9.33;;;2.37;;
7525;SDS011;3804;50.860;6.208;2022-10-10T10:56:04;7.43;;;2.40;;
7525;SDS011;3804;50.860;6.208;2022-10-10T10:58:21;9.77;;;2.40;;
7525;SDS011;3804;50.860;6.208;2022-10-10T11:01:14;9.47;;;2.70;;
7525;SDS011;3804;50.860;6.208;2022-10-10T11:04:00;5.63;;;2.43;;
7525;SDS011;3804;50.860;6.208;2022-10-10T11:09:54;6.27;;;2.37;;
7525;SDS011;3804;50.860;6.208;2022-10-10T11:17:26;10.30;;;2.87;;
7525;SDS011;3804;50.860;6.208;2022-10-10T11:20:05;10.97;;;2.43;;
7525;SDS011;3804;50.860;6.208;2022-10-10T11:22:38;8.23;;;2.63;;
7525;SDS011;3804;50.860;6.208;2022-10-10T11:25:26;6.73;;;2.40;;
7525;SDS011;3804;50.860;6.208;2022-10-10T11:30:25;9.27;;;2.23;;
7525;SDS011;3804;50.860;6.208;2022-10-10T11:33:00;11.57;;;2.50;;
7525;SDS011;3804;50.860;6.208;2022-10-10T11:35:34;6.33;;;2.10;;
7525;SDS011;3804;50.860;6.208;2022-10-10T11:38:09;10.97;;;2.20;;
7525;SDS011;3804;50.860;6.208;2022-10-10T11:40:45;8.23;;;2.20;;
7525;SDS011;3804;50.860;6.208;2022-10-10T11:43:17;8.73;;;2.30;;
7525;SDS011;3804;50.860;6.208;2022-10-10T11:45:45;6.90;;;2.23;;
7525;SDS011;3804;50.860;6.208;2022-10-10T11:48:37;7.97;;;2.23;;
7525;SDS011;3804;50.860;6.208;2022-10-10T11:51:29;8.90;;;2.87;;
7525;SDS011;3804;50.860;6.208;2022-10-10T11:53:58;11.67;;;2.70;;
7525;SDS011;3804;50.860;6.208;2022-10-10T11:56:33;9.90;;;2.50;;
7525;SDS011;3804;50.860;6.208;2022-10-10T11:59:24;8.90;;;2.50;;
7525;SDS011;3804;50.860;6.208;2022-10-10T12:01:53;9.67;;;2.43;;
7525;SDS011;3804;50.860;6.208;2022-10-10T12:04:21;13.93;;;2.70;;
7525;SDS011;3804;50.860;6.208;2022-10-10T12:06:53;9.07;;;2.50;;
7525;SDS011;3804;50.860;6.208;2022-10-10T12:09:26;9.30;;;3.20;;
7525;SDS011;3804;50.860;6.208;2022-10-10T12:14:21;8.30;;;2.47;;
7525;SDS011;3804;50.860;6.208;2022-10-10T12:16:50;10.23;;;3.10;;
7525;SDS011;3804;50.860;6.208;2022-10-10T12:19:18;7.17;;;2.60;;
7525;SDS011;3804;50.860;6.208;2022-10-10T12:21:50;10.47;;;2.80;;
7525;SDS011;3804;50.860;6.208;2022-10-10T12:24:18;8.60;;;2.33;;
7525;SDS011;3804;50.860;6.208;2022-10-10T12:32:49;12.73;;;2.53;;
7525;SDS011;3804;50.860;6.208;2022-10-10T12:34:57;8.40;;;2.20;;
7525;SDS011;3804;50.860;6.208;2022-10-10T12:37:26;8.00;;;2.03;;
7525;SDS011;3804;50.860;6.208;2022-10-10T12:42:40;11.07;;;2.30;;
7525;SDS011;3804;50.860;6.208;2022-10-10T12:48:04;6.70;;;2.50;;
7525;SDS011;3804;50.860;6.208;2022-10-10T12:50:42;9.47;;;2.40;;
7525;SDS011;3804;50.860;6.208;2022-10-10T12:53:18;7.43;;;2.60;;
7525;SDS011;3804;50.860;6.208;2022-10-10T12:55:48;9.57;;;2.50;;
7525;SDS011;3804;50.860;6.208;2022-10-10T12:58:21;8.47;;;2.73;;
7525;SDS011;3804;50.860;6.208;2022-10-10T13:00:54;9.73;;;2.93;;
7525;SDS011;3804;50.860;6.208;2022-10-10T13:05:59;10.73;;;2.83;;
7525;SDS011;3804;50.860;6.208;2022-10-10T13:08:28;11.13;;;3.00;;
7525;SDS011;3804;50.860;6.208;2022-10-10T13:11:03;6.53;;;2.43;;
7525;SDS011;3804;50.860;6.208;2022-10-10T13:13:30;12.10;;;3.30;;
7525;SDS011;3804;50.860;6.208;2022-10-10T13:15:58;9.27;;;2.50;;
7525;SDS011;3804;50.860;6.208;2022-10-10T13:18:41;14.73;;;2.80;;
7525;SDS011;3804;50.860;6.208;2022-10-10T13:21:10;8.63;;;2.30;;
7525;SDS011;3804;50.860;6.208;2022-10-10T13:23:43;14.13;;;3.50;;
7525;SDS011;3804;50.860;6.208;2022-10-10T13:26:31;8.80;;;2.27;;
7525;SDS011;3804;50.860;6.208;2022-10-10T13:29:00;14.17;;;2.60;;
7525;SDS011;3804;50.860;6.208;2022-10-10T13:31:30;7.10;;;2.60;;
7525;SDS011;3804;50.860;6.208;2022-10-10T13:33:57;9.10;;;2.63;;
7525;SDS011;3804;50.860;6.208;2022-10-10T13:36:26;11.00;;;2.73;;
7525;SDS011;3804;50.860;6.208;2022-10-10T13:38:53;10.90;;;2.57;;
7525;SDS011;3804;50.860;6.208;2022-10-10T13:41:19;10.73;;;2.70;;
7525;SDS011;3804;50.860;6.208;2022-10-10T13:43:48;9.67;;;2.30;;
7525;SDS011;3804;50.860;6.208;2022-10-10T13:46:21;9.17;;;2.80;;
7525;SDS011;3804;50.860;6.208;2022-10-10T13:48:49;8.30;;;2.63;;
7525;SDS011;3804;50.860;6.208;2022-10-10T13:51:18;7.53;;;2.87;;
7525;SDS011;3804;50.860;6.208;2022-10-10T14:03:49;12.17;;;2.70;;
7525;SDS011;3804;50.860;6.208;2022-10-10T14:06:20;8.63;;;2.67;;
7525;SDS011;3804;50.860;6.208;2022-10-10T14:08:50;20.50;;;4.13;;
7525;SDS011;3804;50.860;6.208;2022-10-10T14:11:18;7.60;;;3.00;;
7525;SDS011;3804;50.860;6.208;2022-10-10T14:13:49;10.23;;;2.73;;
7525;SDS011;3804;50.860;6.208;2022-10-10T14:18:44;11.27;;;4.03;;
7525;SDS011;3804;50.860;6.208;2022-10-10T14:21:11;8.10;;;3.43;;
7525;SDS011;3804;50.860;6.208;2022-10-10T14:23:38;10.93;;;3.60;;
7525;SDS011;3804;50.860;6.208;2022-10-10T14:26:06;10.53;;;3.47;;
7525;SDS011;3804;50.860;6.208;2022-10-10T14:28:36;9.90;;;3.57;;
7525;SDS011;3804;50.860;6.208;2022-10-10T14:31:04;20.07;;;3.90;;
7525;SDS011;3804;50.860;6.208;2022-10-10T14:33:31;9.37;;;3.87;;
7525;SDS011;3804;50.860;6.208;2022-10-10T14:35:58;10.67;;;3.33;;
7525;SDS011;3804;50.860;6.208;2022-10-10T14:38:25;9.60;;;3.27;;
7525;SDS011;3804;50.860;6.208;2022-10-10T14:40:52;7.83;;;2.97;;
7525;SDS011;3804;50.860;6.208;2022-10-10T14:43:19;7.07;;;3.20;;
7525;SDS011;3804;50.860;6.208;2022-10-10T14:45:48;8.33;;;3.00;;
7525;SDS011;3804;50.860;6.208;2022-10-10T14:48:15;9.77;;;3.57;;
7525;SDS011;3804;50.860;6.208;2022-10-10T14:50:43;10.53;;;3.23;;
7525;SDS011;3804;50.860;6.208;2022-10-10T14:53:10;9.63;;;3.50;;
7525;SDS011;3804;50.860;6.208;2022-10-10T14:55:37;11.07;;;3.73;;
7525;SDS011;3804;50.860;6.208;2022-10-10T14:58:15;13.67;;;3.97;;
7525;SDS011;3804;50.860;6.208;2022-10-10T15:00:42;7.83;;;3.20;;
7525;SDS011;3804;50.860;6.208;2022-10-10T15:03:09;9.20;;;3.37;;
7525;SDS011;3804;50.860;6.208;2022-10-10T15:05:36;8.53;;;3.33;;
7525;SDS011;3804;50.860;6.208;2022-10-10T15:08:03;8.53;;;3.50;;
7525;SDS011;3804;50.860;6.208;2022-10-10T15:10:30;8.03;;;3.37;;
7525;SDS011;3804;50.860;6.208;2022-10-10T15:13:00;9.20;;;3.40;;
7525;SDS011;3804;50.860;6.208;2022-10-10T15:15:27;13.17;;;3.90;;
7525;SDS011;3804;50.860;6.208;2022-10-10T15:17:55;12.40;;;4.17;;
7525;SDS011;3804;50.860;6.208;2022-10-10T15:20:22;14.97;;;3.40;;
7525;SDS011;3804;50.860;6.208;2022-10-10T15:22:59;7.57;;;3.80;;
7525;SDS011;3804;50.860;6.208;2022-10-10T15:25:27;10.93;;;3.87;;
7525;SDS011;3804;50.860;6.208;2022-10-10T15:27:59;13.00;;;4.03;;
7525;SDS011;3804;50.860;6.208;2022-10-10T15:30:26;13.63;;;3.63;;
7525;SDS011;3804;50.860;6.208;2022-10-10T15:32:53;7.97;;;3.63;;
7525;SDS011;3804;50.860;6.208;2022-10-10T15:35:21;9.07;;;3.50;;
7525;SDS011;3804;50.860;6.208;2022-10-10T15:37:47;11.53;;;3.37;;
7525;SDS011;3804;50.860;6.208;2022-10-10T15:40:16;13.07;;;3.77;;
7525;SDS011;3804;50.860;6.208;2022-10-10T15:42:45;11.80;;;3.87;;
7525;SDS011;3804;50.860;6.208;2022-10-10T15:45:12;9.87;;;3.93;;
7525;SDS011;3804;50.860;6.208;2022-10-10T15:47:57;13.40;;;3.47;;
7525;SDS011;3804;50.860;6.208;2022-10-10T15:50:23;8.37;;;3.60;;
7525;SDS011;3804;50.860;6.208;2022-10-10T15:52:52;10.37;;;4.03;;
7525;SDS011;3804;50.860;6.208;2022-10-10T15:55:19;8.53;;;3.67;;
7525;SDS011;3804;50.860;6.208;2022-10-10T15:57:46;11.37;;;3.67;;
7525;SDS011;3804;50.860;6.208;2022-10-10T16:00:13;9.37;;;3.80;;
7525;SDS011;3804;50.860;6.208;2022-10-10T16:02:40;14.03;;;4.17;;
7525;SDS011;3804;50.860;6.208;2022-10-10T16:05:07;11.40;;;3.90;;
7525;SDS011;3804;50.860;6.208;2022-10-10T16:07:35;6.80;;;3.27;;
7525;SDS011;3804;50.860;6.208;2022-10-10T16:10:13;11.17;;;3.93;;
7525;SDS011;3804;50.860;6.208;2022-10-10T16:12:39;8.43;;;3.50;;
7525;SDS011;3804;50.860;6.208;2022-10-10T16:15:06;8.53;;;3.50;;
7525;SDS011;3804;50.860;6.208;2022-10-10T16:17:33;11.13;;;4.00;;
7525;SDS011;3804;50.860;6.208;2022-10-10T16:20:00;13.03;;;4.00;;
7525;SDS011;3804;50.860;6.208;2022-10-10T16:22:27;8.27;;;4.00;;
7525;SDS011;3804;50.860;6.208;2022-10-10T16:24:54;10.27;;;4.00;;
7525;SDS011;3804;50.860;6.208;2022-10-10T16:27:41;11.67;;;4.40;;
7525;SDS011;3804;50.860;6.208;2022-10-10T16:30:08;10.23;;;4.73;;
7525;SDS011;3804;50.860;6.208;2022-10-10T16:32:35;7.07;;;4.03;;
7525;SDS011;3804;50.860;6.208;2022-10-10T16:35:08;12.00;;;4.63;;
7525;SDS011;3804;50.860;6.208;2022-10-10T16:37:35;7.77;;;3.97;;
7525;SDS011;3804;50.860;6.208;2022-10-10T16:40:01;8.60;;;4.50;;
7525;SDS011;3804;50.860;6.208;2022-10-10T16:42:28;7.67;;;4.27;;
7525;SDS011;3804;50.860;6.208;2022-10-10T16:44:55;7.23;;;4.10;;
7525;SDS011;3804;50.860;6.208;2022-10-10T16:47:21;9.70;;;5.50;;
7525;SDS011;3804;50.860;6.208;2022-10-10T16:49:48;11.47;;;5.43;;
7525;SDS011;3804;50.860;6.208;2022-10-10T16:52:15;7.37;;;5.00;;
7525;SDS011;3804;50.860;6.208;2022-10-10T16:54:41;9.67;;;5.80;;